Portada
METAR-TAF:

METAR-TAF

Aeropuertos :

Aeropuerto Internacional de Vladivostok

Vladivostok, Rusia

latitud: 43-07N, longitud: 131-56E, altitud: 184 m

Observación

El informe se hizo hace 33 minutos, a las 10:00 UTC
Viento 6 kt del norte
Temperatura 12°C
Humedad 10%
Presión 1012 hPa
Visibilidad 10 km o más

METAR: UHWW 191000Z 35003MPS 9999 NSC 12/M19 Q1012 R25L/0///70 NOSIG RMK QFE758

Hora: 20:33 (10:33 UTC)

Pronóstico

El informe se hizo hace 2 horas y 33 minutos, a las 08:00 UTC
Pronóstico válido del 19 a las 09 UTC al 20 a las 09 UTC
Viento 6 kt del noroeste
Visibilidad 10 km o más
Temporalmente
del 19 a las 09 UTC al 19 a las 12 UTC
Viento 23 kt del norte-noroeste
Evolucionando progresivamente
del 19 a las 20 UTC al 19 a las 22 UTC
Viento 6 kt del sur-suroeste

TAF: UHWW 190800Z 1909/2009 32003MPS 9999 NSC TEMPO 1909/1912 33012MPS BECMG 1920/1922 20003MPS

Observaciones y pronósticos meteorológicos de más de 4000 aeropuertos (mensajes METAR y TAF).

Los puntos amarillos y rojos representan las estaciones disponibles.

Ponga el ratón en el punto deseado para ver el nombre de la estación.

Haga clic para ver las observaciones y los pronósticos meteorológicos.

Para cambiar el mapa : haga clic en los botones verdes con una cruz de color negro para hacer un zoom, en el botón verde con un guión para alejar o en las flechas verdes para mapas adyacentes.


METAR-TAF: